sensor_id;sensor_type;location;lat;lon;timestamp;pressure;altitude;pressure_sealevel;temperature;humidity
59877;BME280;45749;51.140;17.184;2023-04-15T00:01:03;98754.78;;;11.36;97.38
59877;BME280;45749;51.140;17.184;2023-04-15T00:03:30;98756.59;;;11.36;97.72
59877;BME280;45749;51.140;17.184;2023-04-15T00:05:56;98752.78;;;11.38;97.50
59877;BME280;45749;51.140;17.184;2023-04-15T00:08:22;98746.53;;;11.39;97.70
59877;BME280;45749;51.140;17.184;2023-04-15T00:10:47;98753.13;;;11.35;97.68
59877;BME280;45749;51.140;17.184;2023-04-15T00:13:13;98751.44;;;11.34;97.45
59877;BME280;45749;51.140;17.184;2023-04-15T00:15:39;98752.56;;;11.32;97.51
59877;BME280;45749;51.140;17.184;2023-04-15T00:18:05;98754.56;;;11.30;97.86
59877;BME280;45749;51.140;17.184;2023-04-15T00:20:32;98750.25;;;11.28;97.68
59877;BME280;45749;51.140;17.184;2023-04-15T00:22:58;98745.94;;;11.27;97.61
59877;BME280;45749;51.140;17.184;2023-04-15T00:25:25;98752.88;;;11.28;97.55
59877;BME280;45749;51.140;17.184;2023-04-15T00:27:50;98748.25;;;11.22;97.58
59877;BME280;45749;51.140;17.184;2023-04-15T00:30:16;98762.25;;;11.23;97.50
59877;BME280;45749;51.140;17.184;2023-04-15T00:32:41;98755.47;;;11.20;97.51
59877;BME280;45749;51.140;17.184;2023-04-15T00:35:07;98752.16;;;11.18;97.78
59877;BME280;45749;51.140;17.184;2023-04-15T00:37:33;98747.88;;;11.17;97.25
59877;BME280;45749;51.140;17.184;2023-04-15T00:39:59;98749.69;;;11.17;97.32
59877;BME280;45749;51.140;17.184;2023-04-15T00:42:25;98749.97;;;11.14;97.49
59877;BME280;45749;51.140;17.184;2023-04-15T00:44:50;98745.00;;;11.11;97.60
59877;BME280;45749;51.140;17.184;2023-04-15T00:47:17;98750.16;;;11.12;97.61
59877;BME280;45749;51.140;17.184;2023-04-15T00:49:43;98746.44;;;11.05;97.73
59877;BME280;45749;51.140;17.184;2023-04-15T00:52:08;98750.88;;;11.04;97.95
59877;BME280;45749;51.140;17.184;2023-04-15T00:54:34;98756.69;;;11.08;98.09
59877;BME280;45749;51.140;17.184;2023-04-15T00:56:59;98762.13;;;11.07;97.93
59877;BME280;45749;51.140;17.184;2023-04-15T00:59:25;98758.50;;;11.08;98.05
59877;BME280;45749;51.140;17.184;2023-04-15T01:01:51;98759.19;;;11.10;98.23
59877;BME280;45749;51.140;17.184;2023-04-15T01:04:17;98765.28;;;11.10;98.03
59877;BME280;45749;51.140;17.184;2023-04-15T01:06:42;98757.00;;;11.05;98.02
59877;BME280;45749;51.140;17.184;2023-04-15T01:09:08;98759.63;;;11.05;98.33
59877;BME280;45749;51.140;17.184;2023-04-15T01:11:34;98758.97;;;11.03;98.25
59877;BME280;45749;51.140;17.184;2023-04-15T01:14:00;98756.34;;;11.03;98.33
59877;BME280;45749;51.140;17.184;2023-04-15T01:16:25;98764.09;;;11.04;98.38
59877;BME280;45749;51.140;17.184;2023-04-15T01:18:52;98755.34;;;11.04;98.12
59877;BME280;45749;51.140;17.184;2023-04-15T01:21:18;98754.66;;;11.02;98.45
59877;BME280;45749;51.140;17.184;2023-04-15T01:23:46;98759.94;;;11.02;98.40
59877;BME280;45749;51.140;17.184;2023-04-15T01:26:12;98763.44;;;11.02;98.33
59877;BME280;45749;51.140;17.184;2023-04-15T01:28:38;98763.44;;;11.02;98.34
59877;BME280;45749;51.140;17.184;2023-04-15T01:31:08;98761.09;;;10.99;98.51
59877;BME280;45749;51.140;17.184;2023-04-15T01:33:34;98760.94;;;11.01;98.57
59877;BME280;45749;51.140;17.184;2023-04-15T01:36:00;98762.88;;;10.99;98.32
59877;BME280;45749;51.140;17.184;2023-04-15T01:38:26;98767.31;;;10.98;98.21
59877;BME280;45749;51.140;17.184;2023-04-15T01:40:52;98764.84;;;10.97;98.33
59877;BME280;45749;51.140;17.184;2023-04-15T01:43:18;98751.97;;;10.94;98.25
59877;BME280;45749;51.140;17.184;2023-04-15T01:45:43;98761.41;;;10.96;97.97
59877;BME280;45749;51.140;17.184;2023-04-15T01:48:09;98760.56;;;10.96;97.93
59877;BME280;45749;51.140;17.184;2023-04-15T01:50:34;98760.72;;;10.94;98.12
59877;BME280;45749;51.140;17.184;2023-04-15T01:53:01;98761.53;;;10.95;97.91
59877;BME280;45749;51.140;17.184;2023-04-15T01:55:26;98760.19;;;10.91;97.83
59877;BME280;45749;51.140;17.184;2023-04-15T01:57:51;98764.63;;;10.90;97.72
59877;BME280;45749;51.140;17.184;2023-04-15T02:00:17;98766.59;;;10.88;97.98
59877;BME280;45749;51.140;17.184;2023-04-15T02:02:42;98774.50;;;10.88;98.21
59877;BME280;45749;51.140;17.184;2023-04-15T02:05:08;98779.34;;;10.93;98.31
59877;BME280;45749;51.140;17.184;2023-04-15T02:07:35;98780.31;;;10.92;98.32
59877;BME280;45749;51.140;17.184;2023-04-15T02:10:01;98781.00;;;10.94;98.30
59877;BME280;45749;51.140;17.184;2023-04-15T02:12:26;98776.25;;;10.97;98.41
59877;BME280;45749;51.140;17.184;2023-04-15T02:14:52;98782.34;;;10.98;98.50
59877;BME280;45749;51.140;17.184;2023-04-15T02:17:17;98783.16;;;10.98;98.30
59877;BME280;45749;51.140;17.184;2023-04-15T02:19:43;98779.03;;;10.96;98.18
59877;BME280;45749;51.140;17.184;2023-04-15T02:22:08;98789.03;;;10.92;98.05
59877;BME280;45749;51.140;17.184;2023-04-15T02:24:35;98779.66;;;10.90;98.30
59877;BME280;45749;51.140;17.184;2023-04-15T02:27:00;98779.66;;;10.90;98.23
59877;BME280;45749;51.140;17.184;2023-04-15T02:29:26;98779.13;;;10.86;98.38
59877;BME280;45749;51.140;17.184;2023-04-15T02:31:51;98786.19;;;10.86;98.28
59877;BME280;45749;51.140;17.184;2023-04-15T02:34:17;98788.69;;;10.87;98.37
59877;BME280;45749;51.140;17.184;2023-04-15T02:36:42;98788.00;;;10.85;98.06
59877;BME280;45749;51.140;17.184;2023-04-15T02:39:08;98779.41;;;10.83;98.21
59877;BME280;45749;51.140;17.184;2023-04-15T02:41:33;98783.00;;;10.82;98.05
59877;BME280;45749;51.140;17.184;2023-04-15T02:43:59;98790.78;;;10.84;98.15
59877;BME280;45749;51.140;17.184;2023-04-15T02:46:25;98794.78;;;10.88;98.19
59877;BME280;45749;51.140;17.184;2023-04-15T02:48:51;98791.69;;;10.92;98.00
59877;BME280;45749;51.140;17.184;2023-04-15T02:51:20;98800.16;;;10.96;97.81
59877;BME280;45749;51.140;17.184;2023-04-15T02:53:46;98791.91;;;10.99;97.33
59877;BME280;45749;51.140;17.184;2023-04-15T02:56:11;98794.13;;;11.03;97.57
59877;BME280;45749;51.140;17.184;2023-04-15T02:58:39;98790.34;;;11.06;97.51
59877;BME280;45749;51.140;17.184;2023-04-15T03:01:04;98802.78;;;11.14;97.32
59877;BME280;45749;51.140;17.184;2023-04-15T03:03:31;98803.78;;;11.13;96.97
59877;BME280;45749;51.140;17.184;2023-04-15T03:05:57;98817.78;;;11.13;96.84
59877;BME280;45749;51.140;17.184;2023-04-15T03:08:22;98820.72;;;11.10;96.76
59877;BME280;45749;51.140;17.184;2023-04-15T03:10:47;98823.22;;;11.12;96.41
59877;BME280;45749;51.140;17.184;2023-04-15T03:13:13;98835.34;;;11.04;96.27
59877;BME280;45749;51.140;17.184;2023-04-15T03:15:38;98827.16;;;10.90;96.11
59877;BME280;45749;51.140;17.184;2023-04-15T03:18:04;98840.41;;;10.80;96.14
59877;BME280;45749;51.140;17.184;2023-04-15T03:20:30;98828.69;;;10.65;96.14
59877;BME280;45749;51.140;17.184;2023-04-15T03:22:55;98830.38;;;10.56;96.13
59877;BME280;45749;51.140;17.184;2023-04-15T03:25:21;98843.22;;;10.51;96.21
59877;BME280;45749;51.140;17.184;2023-04-15T03:27:46;98844.06;;;10.42;95.83
59877;BME280;45749;51.140;17.184;2023-04-15T03:30:12;98854.53;;;10.33;95.85
59877;BME280;45749;51.140;17.184;2023-04-15T03:32:38;98852.47;;;10.27;95.77
59877;BME280;45749;51.140;17.184;2023-04-15T03:35:04;98848.56;;;10.22;95.48
59877;BME280;45749;51.140;17.184;2023-04-15T03:37:29;98861.34;;;10.17;95.24
59877;BME280;45749;51.140;17.184;2023-04-15T03:39:54;98864.59;;;10.10;94.98
59877;BME280;45749;51.140;17.184;2023-04-15T03:42:20;98877.50;;;10.04;94.99
59877;BME280;45749;51.140;17.184;2023-04-15T03:44:46;98891.25;;;9.98;94.98
59877;BME280;45749;51.140;17.184;2023-04-15T03:47:11;98895.00;;;9.95;94.68
59877;BME280;45749;51.140;17.184;2023-04-15T03:49:36;98900.69;;;9.91;94.59
59877;BME280;45749;51.140;17.184;2023-04-15T03:52:02;98897.38;;;9.89;94.86
59877;BME280;45749;51.140;17.184;2023-04-15T03:54:27;98911.81;;;9.84;94.44
59877;BME280;45749;51.140;17.184;2023-04-15T03:56:53;98908.06;;;9.77;94.16
59877;BME280;45749;51.140;17.184;2023-04-15T03:59:18;98904.31;;;9.70;93.82
59877;BME280;45749;51.140;17.184;2023-04-15T04:01:43;98905.72;;;9.65;93.92
59877;BME280;45749;51.140;17.184;2023-04-15T04:04:09;98913.19;;;9.59;93.80
59877;BME280;45749;51.140;17.184;2023-04-15T04:06:34;98908.47;;;9.53;93.77
59877;BME280;45749;51.140;17.184;2023-04-15T04:09:00;98897.94;;;9.44;93.52
59877;BME280;45749;51.140;17.184;2023-04-15T04:11:25;98907.09;;;9.39;93.09
59877;BME280;45749;51.140;17.184;2023-04-15T04:13:52;98905.03;;;9.33;93.11
59877;BME280;45749;51.140;17.184;2023-04-15T04:16:18;98909.88;;;9.28;92.64
59877;BME280;45749;51.140;17.184;2023-04-15T04:18:43;98910.97;;;9.26;92.49
59877;BME280;45749;51.140;17.184;2023-04-15T04:21:09;98919.72;;;9.26;92.98
59877;BME280;45749;51.140;17.184;2023-04-15T04:23:34;98925.94;;;9.25;92.31
59877;BME280;45749;51.140;17.184;2023-04-15T04:26:00;98934.25;;;9.21;92.03
59877;BME280;45749;51.140;17.184;2023-04-15T04:28:25;98941.72;;;9.15;91.76
59877;BME280;45749;51.140;17.184;2023-04-15T04:30:51;98944.91;;;9.09;91.30
59877;BME280;45749;51.140;17.184;2023-04-15T04:33:16;98940.72;;;9.07;91.49
59877;BME280;45749;51.140;17.184;2023-04-15T04:35:42;98948.06;;;9.03;91.16
59877;BME280;45749;51.140;17.184;2023-04-15T04:38:07;98944.16;;;8.98;91.34
59877;BME280;45749;51.140;17.184;2023-04-15T04:40:33;98953.84;;;8.97;91.21
59877;BME280;45749;51.140;17.184;2023-04-15T04:42:58;98948.19;;;8.92;90.89
59877;BME280;45749;51.140;17.184;2023-04-15T04:45:24;98965.06;;;8.89;90.63
59877;BME280;45749;51.140;17.184;2023-04-15T04:47:49;98963.66;;;8.85;90.71
59877;BME280;45749;51.140;17.184;2023-04-15T04:50:15;98964.63;;;8.84;91.19
59877;BME280;45749;51.140;17.184;2023-04-15T04:52:41;98962.00;;;8.84;90.68
59877;BME280;45749;51.140;17.184;2023-04-15T04:55:06;98966.00;;;8.79;90.35
59877;BME280;45749;51.140;17.184;2023-04-15T04:57:33;98959.22;;;8.76;90.33
59877;BME280;45749;51.140;17.184;2023-04-15T05:00:00;98963.75;;;8.74;90.58
59877;BME280;45749;51.140;17.184;2023-04-15T05:02:26;98966.38;;;8.74;90.60
59877;BME280;45749;51.140;17.184;2023-04-15T05:04:51;98967.09;;;8.76;90.40
59877;BME280;45749;51.140;17.184;2023-04-15T05:07:19;98964.72;;;8.73;90.09
59877;BME280;45749;51.140;17.184;2023-04-15T05:09:45;98971.06;;;8.71;90.30
59877;BME280;45749;51.140;17.184;2023-04-15T05:12:11;98963.91;;;8.73;90.48
59877;BME280;45749;51.140;17.184;2023-04-15T05:14:39;98975.25;;;8.73;90.27
59877;BME280;45749;51.140;17.184;2023-04-15T05:17:05;98977.16;;;8.71;90.14
59877;BME280;45749;51.140;17.184;2023-04-15T05:19:31;98980.88;;;8.68;90.59
59877;BME280;45749;51.140;17.184;2023-04-15T05:21:56;98983.13;;;8.73;90.41
59877;BME280;45749;51.140;17.184;2023-04-15T05:24:22;98975.25;;;8.73;90.94
59877;BME280;45749;51.140;17.184;2023-04-15T05:26:47;98976.91;;;8.74;90.33
59877;BME280;45749;51.140;17.184;2023-04-15T05:29:12;98981.34;;;8.74;90.49
59877;BME280;45749;51.140;17.184;2023-04-15T05:31:38;98983.13;;;8.73;90.51
59877;BME280;45749;51.140;17.184;2023-04-15T05:34:03;98986.03;;;8.70;90.43
59877;BME280;45749;51.140;17.184;2023-04-15T05:36:29;98992.94;;;8.71;90.67
59877;BME280;45749;51.140;17.184;2023-04-15T05:38:55;99007.78;;;8.72;90.42
59877;BME280;45749;51.140;17.184;2023-04-15T05:41:21;98995.56;;;8.71;90.60
59877;BME280;45749;51.140;17.184;2023-04-15T05:43:46;98995.47;;;8.73;90.37
59877;BME280;45749;51.140;17.184;2023-04-15T05:46:12;99004.84;;;8.75;90.19
59877;BME280;45749;51.140;17.184;2023-04-15T05:48:37;99003.91;;;8.76;90.06
59877;BME280;45749;51.140;17.184;2023-04-15T05:51:02;99006.81;;;8.73;90.09
59877;BME280;45749;51.140;17.184;2023-04-15T05:53:28;99008.63;;;8.73;89.84
59877;BME280;45749;51.140;17.184;2023-04-15T05:55:53;99017.44;;;8.72;89.90
59877;BME280;45749;51.140;17.184;2023-04-15T05:58:19;99012.06;;;8.73;90.17
59877;BME280;45749;51.140;17.184;2023-04-15T06:00:44;99020.78;;;8.74;89.76
59877;BME280;45749;51.140;17.184;2023-04-15T06:03:10;99024.69;;;8.79;89.83
59877;BME280;45749;51.140;17.184;2023-04-15T06:05:36;99023.72;;;8.80;89.59
59877;BME280;45749;51.140;17.184;2023-04-15T06:08:01;99032.06;;;8.85;90.07
59877;BME280;45749;51.140;17.184;2023-04-15T06:10:26;99035.00;;;8.92;90.06
59877;BME280;45749;51.140;17.184;2023-04-15T06:12:52;99027.69;;;8.96;90.06
59877;BME280;45749;51.140;17.184;2023-04-15T06:15:17;99038.50;;;9.02;89.52
59877;BME280;45749;51.140;17.184;2023-04-15T06:17:44;99034.06;;;9.03;89.38
59877;BME280;45749;51.140;17.184;2023-04-15T06:20:10;99033.66;;;9.07;89.75
59877;BME280;45749;51.140;17.184;2023-04-15T06:22:36;99031.78;;;9.19;89.96
59877;BME280;45749;51.140;17.184;2023-04-15T06:25:03;99040.94;;;9.25;89.51
59877;BME280;45749;51.140;17.184;2023-04-15T06:27:29;99039.53;;;9.30;89.76
59877;BME280;45749;51.140;17.184;2023-04-15T06:29:54;99047.72;;;9.37;88.77
59877;BME280;45749;51.140;17.184;2023-04-15T06:32:20;99035.53;;;9.26;88.29
59877;BME280;45749;51.140;17.184;2023-04-15T06:34:45;99051.75;;;9.31;88.70
59877;BME280;45749;51.140;17.184;2023-04-15T06:37:11;99045.53;;;9.32;88.70
59877;BME280;45749;51.140;17.184;2023-04-15T06:39:40;99049.97;;;9.32;88.59
59877;BME280;45749;51.140;17.184;2023-04-15T06:42:06;99051.63;;;9.33;88.65
59877;BME280;45749;51.140;17.184;2023-04-15T06:44:32;99052.44;;;9.33;88.41
59877;BME280;45749;51.140;17.184;2023-04-15T06:46:57;99052.72;;;9.30;87.93
59877;BME280;45749;51.140;17.184;2023-04-15T06:49:23;99044.97;;;9.29;88.36
59877;BME280;45749;51.140;17.184;2023-04-15T06:51:48;99051.47;;;9.34;88.69
59877;BME280;45749;51.140;17.184;2023-04-15T06:54:13;99063.25;;;9.40;89.01
59877;BME280;45749;51.140;17.184;2023-04-15T06:56:39;99060.53;;;9.51;88.53
59877;BME280;45749;51.140;17.184;2023-04-15T06:59:06;99063.19;;;9.61;89.13
59877;BME280;45749;51.140;17.184;2023-04-15T07:01:31;99060.84;;;9.68;88.96
59877;BME280;45749;51.140;17.184;2023-04-15T07:03:56;99066.41;;;9.74;88.72
59877;BME280;45749;51.140;17.184;2023-04-15T07:06:22;99074.97;;;9.76;88.24
59877;BME280;45749;51.140;17.184;2023-04-15T07:08:51;99079.72;;;9.82;88.67
59877;BME280;45749;51.140;17.184;2023-04-15T07:11:16;99077.78;;;9.84;88.02
59877;BME280;45749;51.140;17.184;2023-04-15T07:13:41;99087.19;;;9.87;88.32
59877;BME280;45749;51.140;17.184;2023-04-15T07:16:07;99073.34;;;9.95;88.45
59877;BME280;45749;51.140;17.184;2023-04-15T07:18:33;99075.56;;;9.99;88.49
59877;BME280;45749;51.140;17.184;2023-04-15T07:20:58;99075.16;;;10.04;88.04
59877;BME280;45749;51.140;17.184;2023-04-15T07:23:24;99084.19;;;10.11;88.26
59877;BME280;45749;51.140;17.184;2023-04-15T07:25:49;99087.50;;;10.13;88.13
59877;BME280;45749;51.140;17.184;2023-04-15T07:28:16;99091.38;;;10.19;87.79
59877;BME280;45749;51.140;17.184;2023-04-15T07:30:41;99086.38;;;10.16;87.85
59877;BME280;45749;51.140;17.184;2023-04-15T07:33:07;99094.84;;;10.19;87.61
59877;BME280;45749;51.140;17.184;2023-04-15T07:35:32;99088.63;;;10.20;87.51
59877;BME280;45749;51.140;17.184;2023-04-15T07:37:58;99089.75;;;10.27;87.85
59877;BME280;45749;51.140;17.184;2023-04-15T07:40:23;99082.25;;;10.32;87.80
59877;BME280;45749;51.140;17.184;2023-04-15T07:42:49;99078.94;;;10.40;88.19
59877;BME280;45749;51.140;17.184;2023-04-15T07:45:14;99095.16;;;10.45;87.87
59877;BME280;45749;51.140;17.184;2023-04-15T07:47:40;99093.88;;;10.49;87.55
59877;BME280;45749;51.140;17.184;2023-04-15T07:50:08;99091.81;;;10.53;87.43
59877;BME280;45749;51.140;17.184;2023-04-15T07:52:34;99090.97;;;10.52;87.13
59877;BME280;45749;51.140;17.184;2023-04-15T07:55:07;99088.88;;;10.56;87.24
59877;BME280;45749;51.140;17.184;2023-04-15T07:57:34;99099.16;;;10.59;86.08
59877;BME280;45749;51.140;17.184;2023-04-15T08:00:00;99101.13;;;10.57;86.68
59877;BME280;45749;51.140;17.184;2023-04-15T08:02:27;99100.84;;;10.60;87.11
59877;BME280;45749;51.140;17.184;2023-04-15T08:04:53;99119.69;;;10.65;86.16
59877;BME280;45749;51.140;17.184;2023-04-15T08:07:18;99104.97;;;10.63;86.03
59877;BME280;45749;51.140;17.184;2023-04-15T08:09:44;99118.44;;;10.69;85.89
59877;BME280;45749;51.140;17.184;2023-04-15T08:12:10;99111.22;;;10.71;85.67
59877;BME280;45749;51.140;17.184;2023-04-15T08:14:38;99115.38;;;10.74;85.38
59877;BME280;45749;51.140;17.184;2023-04-15T08:17:03;99122.59;;;10.82;85.44
59877;BME280;45749;51.140;17.184;2023-04-15T08:19:30;99128.28;;;10.77;84.18
59877;BME280;45749;51.140;17.184;2023-04-15T08:21:55;99139.41;;;10.80;84.77
59877;BME280;45749;51.140;17.184;2023-04-15T08:24:22;99133.28;;;10.90;85.62
59877;BME280;45749;51.140;17.184;2023-04-15T08:26:48;99128.81;;;11.00;85.19
59877;BME280;45749;51.140;17.184;2023-04-15T08:29:13;99134.59;;;11.13;85.24
59877;BME280;45749;51.140;17.184;2023-04-15T08:31:39;99135.97;;;11.17;84.98
59877;BME280;45749;51.140;17.184;2023-04-15T08:34:04;99135.94;;;11.27;84.17
59877;BME280;45749;51.140;17.184;2023-04-15T08:36:30;99140.44;;;11.44;85.05
59877;BME280;45749;51.140;17.184;2023-04-15T08:38:56;99145.09;;;11.60;83.37
59877;BME280;45749;51.140;17.184;2023-04-15T08:41:24;99133.88;;;11.58;82.39
59877;BME280;45749;51.140;17.184;2023-04-15T08:43:58;99139.53;;;11.63;82.84
59877;BME280;45749;51.140;17.184;2023-04-15T08:46:25;99143.13;;;11.72;82.89
59877;BME280;45749;51.140;17.184;2023-04-15T08:48:51;99147.09;;;11.86;83.51
59877;BME280;45749;51.140;17.184;2023-04-15T08:51:20;99150.75;;;12.03;83.73
59877;BME280;45749;51.140;17.184;2023-04-15T08:53:46;99161.66;;;12.17;81.42
59877;BME280;45749;51.140;17.184;2023-04-15T08:56:13;99144.50;;;12.22;82.70
59877;BME280;45749;51.140;17.184;2023-04-15T08:58:41;99149.56;;;12.33;82.34
59877;BME280;45749;51.140;17.184;2023-04-15T09:01:07;99154.53;;;12.36;81.30
59877;BME280;45749;51.140;17.184;2023-04-15T09:03:34;99144.66;;;12.38;81.53
59877;BME280;45749;51.140;17.184;2023-04-15T09:05:59;99152.50;;;12.48;81.73
59877;BME280;45749;51.140;17.184;2023-04-15T09:08:26;99150.75;;;12.56;81.33
59877;BME280;45749;51.140;17.184;2023-04-15T09:10:52;99144.25;;;12.68;81.32
59877;BME280;45749;51.140;17.184;2023-04-15T09:13:18;99144.66;;;12.82;80.20
59877;BME280;45749;51.140;17.184;2023-04-15T09:15:45;99150.47;;;12.85;78.20
59877;BME280;45749;51.140;17.184;2023-04-15T09:18:11;99151.00;;;12.89;78.08
59877;BME280;45749;51.140;17.184;2023-04-15T09:20:39;99156.72;;;13.02;80.00
59877;BME280;45749;51.140;17.184;2023-04-15T09:23:13;99156.47;;;13.13;78.44
59877;BME280;45749;51.140;17.184;2023-04-15T09:25:39;99154.50;;;13.15;76.76
59877;BME280;45749;51.140;17.184;2023-04-15T09:28:07;99167.06;;;13.13;75.85
59877;BME280;45749;51.140;17.184;2023-04-15T09:30:33;99164.13;;;13.17;76.70
59877;BME280;45749;51.140;17.184;2023-04-15T09:33:01;99156.50;;;13.22;76.90
59877;BME280;45749;51.140;17.184;2023-04-15T09:35:27;99170.50;;;13.32;77.54
59877;BME280;45749;51.140;17.184;2023-04-15T09:38:05;99176.22;;;13.45;75.17
59877;BME280;45749;51.140;17.184;2023-04-15T09:40:36;99176.41;;;13.52;75.62
59877;BME280;45749;51.140;17.184;2023-04-15T09:43:03;99172.31;;;13.57;76.11
59877;BME280;45749;51.140;17.184;2023-04-15T09:45:30;99175.53;;;13.69;73.75
59877;BME280;45749;51.140;17.184;2023-04-15T09:48:14;99176.66;;;13.67;72.05
59877;BME280;45749;51.140;17.184;2023-04-15T09:50:42;99169.50;;;13.59;71.25
59877;BME280;45749;51.140;17.184;2023-04-15T09:53:09;99187.09;;;13.68;72.81
59877;BME280;45749;51.140;17.184;2023-04-15T09:55:36;99189.63;;;13.78;70.75
59877;BME280;45749;51.140;17.184;2023-04-15T09:58:01;99189.66;;;13.86;70.24
59877;BME280;45749;51.140;17.184;2023-04-15T10:00:28;99194.47;;;13.91;70.51
59877;BME280;45749;51.140;17.184;2023-04-15T10:02:54;99194.34;;;13.92;70.39
59877;BME280;45749;51.140;17.184;2023-04-15T10:05:19;99188.34;;;13.90;70.19
59877;BME280;45749;51.140;17.184;2023-04-15T10:07:45;99197.97;;;13.91;70.21
59877;BME280;45749;51.140;17.184;2023-04-15T10:10:11;99195.50;;;13.98;70.25
59877;BME280;45749;51.140;17.184;2023-04-15T10:12:39;99201.31;;;14.01;70.66
59877;BME280;45749;51.140;17.184;2023-04-15T10:15:08;99199.00;;;14.06;69.46
59877;BME280;45749;51.140;17.184;2023-04-15T10:17:37;99185.75;;;14.15;71.42
59877;BME280;45749;51.140;17.184;2023-04-15T10:20:06;99188.31;;;14.32;69.12
59877;BME280;45749;51.140;17.184;2023-04-15T10:22:33;99192.59;;;14.34;69.71
59877;BME280;45749;51.140;17.184;2023-04-15T10:25:01;99191.97;;;14.40;69.45
59877;BME280;45749;51.140;17.184;2023-04-15T10:27:27;99192.78;;;14.40;69.99
59877;BME280;45749;51.140;17.184;2023-04-15T10:29:53;99193.78;;;14.39;70.56
59877;BME280;45749;51.140;17.184;2023-04-15T10:32:20;99193.03;;;14.55;70.67
59877;BME280;45749;51.140;17.184;2023-04-15T10:34:47;99180.75;;;14.78;70.92
59877;BME280;45749;51.140;17.184;2023-04-15T10:37:22;99189.72;;;14.94;70.12
59877;BME280;45749;51.140;17.184;2023-04-15T10:39:57;99191.19;;;15.05;67.10
59877;BME280;45749;51.140;17.184;2023-04-15T10:42:23;99191.19;;;15.05;68.49
59877;BME280;45749;51.140;17.184;2023-04-15T10:44:50;99199.97;;;15.13;68.50
59877;BME280;45749;51.140;17.184;2023-04-15T10:47:17;99202.28;;;15.16;68.02
59877;BME280;45749;51.140;17.184;2023-04-15T10:49:48;99199.78;;;15.23;67.44
59877;BME280;45749;51.140;17.184;2023-04-15T10:52:16;99206.28;;;15.29;66.42
59877;BME280;45749;51.140;17.184;2023-04-15T10:54:42;99210.75;;;15.28;67.74
59877;BME280;45749;51.140;17.184;2023-04-15T10:57:13;99214.41;;;15.35;66.96
59877;BME280;45749;51.140;17.184;2023-04-15T11:00:15;99210.22;;;15.49;66.42
59877;BME280;45749;51.140;17.184;2023-04-15T11:05:14;99198.72;;;15.73;66.77
59877;BME280;45749;51.140;17.184;2023-04-15T11:07:53;99201.81;;;15.85;65.70
59877;BME280;45749;51.140;17.184;2023-04-15T11:12:49;99207.69;;;15.72;64.35
59877;BME280;45749;51.140;17.184;2023-04-15T11:18:15;99201.25;;;16.06;65.76
59877;BME280;45749;51.140;17.184;2023-04-15T11:20:51;99198.63;;;16.29;65.47
59877;BME280;45749;51.140;17.184;2023-04-15T11:23:32;99206.38;;;16.38;63.46
59877;BME280;45749;51.140;17.184;2023-04-15T11:25:59;99218.09;;;16.29;61.34
59877;BME280;45749;51.140;17.184;2023-04-15T11:28:26;99224.75;;;16.25;60.69
59877;BME280;45749;51.140;17.184;2023-04-15T11:30:52;99222.41;;;16.22;63.38
59877;BME280;45749;51.140;17.184;2023-04-15T11:33:18;99211.56;;;16.32;62.14
59877;BME280;45749;51.140;17.184;2023-04-15T11:35:43;99220.94;;;16.51;63.17
59877;BME280;45749;51.140;17.184;2023-04-15T11:38:13;99224.84;;;16.63;61.59
59877;BME280;45749;51.140;17.184;2023-04-15T11:40:40;99211.19;;;16.66;62.59
59877;BME280;45749;51.140;17.184;2023-04-15T11:43:23;99210.75;;;16.85;62.47
59877;BME280;45749;51.140;17.184;2023-04-15T11:45:57;99215.00;;;16.95;62.58
59877;BME280;45749;51.140;17.184;2023-04-15T11:48:28;99214.00;;;16.96;61.78
59877;BME280;45749;51.140;17.184;2023-04-15T11:53:23;99214.09;;;17.02;62.44
59877;BME280;45749;51.140;17.184;2023-04-15T11:55:51;99229.78;;;16.97;59.48
59877;BME280;45749;51.140;17.184;2023-04-15T11:58:24;99239.75;;;16.80;59.70
59877;BME280;45749;51.140;17.184;2023-04-15T12:00:57;99240.13;;;16.69;59.50
59877;BME280;45749;51.140;17.184;2023-04-15T12:06:20;99237.75;;;16.51;58.75
59877;BME280;45749;51.140;17.184;2023-04-15T12:08:49;99236.16;;;16.42;59.75
59877;BME280;45749;51.140;17.184;2023-04-15T12:11:15;99239.03;;;16.32;59.44
59877;BME280;45749;51.140;17.184;2023-04-15T12:13:48;99248.47;;;16.35;59.73
59877;BME280;45749;51.140;17.184;2023-04-15T12:16:17;99235.72;;;16.30;58.91
59877;BME280;45749;51.140;17.184;2023-04-15T12:18:49;99238.56;;;16.29;59.77
59877;BME280;45749;51.140;17.184;2023-04-15T12:21:20;99243.63;;;16.38;60.74
59877;BME280;45749;51.140;17.184;2023-04-15T12:23:50;99252.25;;;16.49;59.71
59877;BME280;45749;51.140;17.184;2023-04-15T12:26:17;99246.94;;;16.49;59.23
59877;BME280;45749;51.140;17.184;2023-04-15T12:28:43;99251.41;;;16.48;58.81
59877;BME280;45749;51.140;17.184;2023-04-15T12:31:09;99250.28;;;16.42;58.37
59877;BME280;45749;51.140;17.184;2023-04-15T12:33:35;99253.66;;;16.36;59.13
59877;BME280;45749;51.140;17.184;2023-04-15T12:36:01;99248.94;;;16.47;60.24
59877;BME280;45749;51.140;17.184;2023-04-15T12:38:27;99254.25;;;16.47;58.05
59877;BME280;45749;51.140;17.184;2023-04-15T12:40:52;99254.47;;;16.37;58.81
59877;BME280;45749;51.140;17.184;2023-04-15T12:43:18;99253.59;;;16.45;60.76
59877;BME280;45749;51.140;17.184;2023-04-15T12:45:43;99254.72;;;16.50;58.79
59877;BME280;45749;51.140;17.184;2023-04-15T12:48:09;99244.06;;;16.50;59.02
59877;BME280;45749;51.140;17.184;2023-04-15T12:50:34;99245.38;;;16.54;57.98
59877;BME280;45749;51.140;17.184;2023-04-15T12:53:00;99255.16;;;16.62;58.88
59877;BME280;45749;51.140;17.184;2023-04-15T12:55:25;99253.81;;;16.66;58.74
59877;BME280;45749;51.140;17.184;2023-04-15T12:57:51;99257.25;;;16.75;59.05
59877;BME280;45749;51.140;17.184;2023-04-15T13:00:17;99256.06;;;16.77;58.06
59877;BME280;45749;51.140;17.184;2023-04-15T13:02:43;99253.09;;;16.72;57.34